sensor_id;sensor_type;location;lat;lon;timestamp;pressure;altitude;pressure_sealevel;temperature;humidity
55990;BME280;41875;55.806;38.082;2023-03-03T00:01:20;97926.25;;;1.73;60.60
55990;BME280;41875;55.806;38.082;2023-03-03T00:03:51;97919.44;;;2.27;58.67
55990;BME280;41875;55.806;38.082;2023-03-03T00:06:20;97924.34;;;2.58;57.28
55990;BME280;41875;55.806;38.082;2023-03-03T00:08:50;97916.69;;;2.29;57.86
55990;BME280;41875;55.806;38.082;2023-03-03T00:11:18;97919.06;;;2.50;57.78
55990;BME280;41875;55.806;38.082;2023-03-03T00:13:47;97909.50;;;2.41;57.31
55990;BME280;41875;55.806;38.082;2023-03-03T00:16:18;97912.25;;;1.74;60.10
55990;BME280;41875;55.806;38.082;2023-03-03T00:18:49;97907.06;;;2.29;58.98
55990;BME280;41875;55.806;38.082;2023-03-03T00:21:25;97908.66;;;2.40;58.71
55990;BME280;41875;55.806;38.082;2023-03-03T00:24:14;97903.69;;;1.91;59.02
55990;BME280;41875;55.806;38.082;2023-03-03T00:26:44;97900.91;;;1.93;60.00
55990;BME280;41875;55.806;38.082;2023-03-03T00:29:23;97897.22;;;2.23;58.59
55990;BME280;41875;55.806;38.082;2023-03-03T00:31:53;97894.16;;;2.28;60.03
55990;BME280;41875;55.806;38.082;2023-03-03T00:34:23;97888.97;;;2.64;60.01
55990;BME280;41875;55.806;38.082;2023-03-03T00:36:54;97892.22;;;2.02;61.20
55990;BME280;41875;55.806;38.082;2023-03-03T00:39:28;97881.09;;;2.28;61.06
55990;BME280;41875;55.806;38.082;2023-03-03T00:41:57;97879.84;;;2.68;60.93
55990;BME280;41875;55.806;38.082;2023-03-03T00:44:39;97882.81;;;2.37;61.56
55990;BME280;41875;55.806;38.082;2023-03-03T00:47:15;97873.41;;;2.26;61.86
55990;BME280;41875;55.806;38.082;2023-03-03T00:49:46;97866.91;;;2.03;62.38
55990;BME280;41875;55.806;38.082;2023-03-03T00:52:16;97864.25;;;1.85;63.73
55990;BME280;41875;55.806;38.082;2023-03-03T00:54:45;97859.75;;;2.05;63.26
55990;BME280;41875;55.806;38.082;2023-03-03T00:57:13;97860.94;;;1.92;63.39
55990;BME280;41875;55.806;38.082;2023-03-03T00:59:42;97851.97;;;1.95;63.90
55990;BME280;41875;55.806;38.082;2023-03-03T01:02:10;97855.47;;;2.13;64.02
55990;BME280;41875;55.806;38.082;2023-03-03T01:04:39;97851.34;;;2.11;62.71
55990;BME280;41875;55.806;38.082;2023-03-03T01:07:08;97847.22;;;1.80;64.27
55990;BME280;41875;55.806;38.082;2023-03-03T01:09:39;97844.13;;;1.95;64.69
55990;BME280;41875;55.806;38.082;2023-03-03T01:12:08;97846.53;;;2.06;63.51
55990;BME280;41875;55.806;38.082;2023-03-03T01:14:36;97838.63;;;1.98;63.65
55990;BME280;41875;55.806;38.082;2023-03-03T01:17:04;97841.28;;;1.60;64.81
55990;BME280;41875;55.806;38.082;2023-03-03T01:19:33;97832.56;;;1.70;64.74
55990;BME280;41875;55.806;38.082;2023-03-03T01:22:01;97834.13;;;1.15;66.18
55990;BME280;41875;55.806;38.082;2023-03-03T01:24:29;97835.91;;;1.90;65.12
55990;BME280;41875;55.806;38.082;2023-03-03T01:27:00;97827.28;;;2.07;64.02
55990;BME280;41875;55.806;38.082;2023-03-03T01:29:28;97830.31;;;2.31;62.95
55990;BME280;41875;55.806;38.082;2023-03-03T01:31:56;97833.06;;;2.11;63.02
55990;BME280;41875;55.806;38.082;2023-03-03T01:34:25;97828.88;;;2.18;63.60
55990;BME280;41875;55.806;38.082;2023-03-03T01:36:53;97825.25;;;2.29;62.98
55990;BME280;41875;55.806;38.082;2023-03-03T01:39:21;97822.75;;;2.27;63.03
55990;BME280;41875;55.806;38.082;2023-03-03T01:41:49;97822.06;;;2.07;63.89
55990;BME280;41875;55.806;38.082;2023-03-03T01:44:19;97820.25;;;2.54;63.04
55990;BME280;41875;55.806;38.082;2023-03-03T01:46:49;97816.78;;;2.17;62.86
55990;BME280;41875;55.806;38.082;2023-03-03T01:49:21;97814.41;;;2.06;64.62
55990;BME280;41875;55.806;38.082;2023-03-03T01:51:51;97819.34;;;2.27;64.42
55990;BME280;41875;55.806;38.082;2023-03-03T01:54:22;97817.63;;;2.36;62.54
55990;BME280;41875;55.806;38.082;2023-03-03T01:56:53;97812.47;;;2.80;63.00
55990;BME280;41875;55.806;38.082;2023-03-03T01:59:24;97808.00;;;2.72;63.13
55990;BME280;41875;55.806;38.082;2023-03-03T02:01:54;97809.69;;;3.00;62.43
55990;BME280;41875;55.806;38.082;2023-03-03T02:04:23;97806.22;;;2.37;63.93
55990;BME280;41875;55.806;38.082;2023-03-03T02:06:53;97812.88;;;2.94;62.66
55990;BME280;41875;55.806;38.082;2023-03-03T02:09:23;97815.41;;;2.59;63.35
55990;BME280;41875;55.806;38.082;2023-03-03T02:11:56;97813.59;;;2.78;62.82
55990;BME280;41875;55.806;38.082;2023-03-03T02:14:27;97806.34;;;2.71;62.94
55990;BME280;41875;55.806;38.082;2023-03-03T02:16:55;97803.47;;;3.01;63.20
55990;BME280;41875;55.806;38.082;2023-03-03T02:19:26;97803.34;;;2.84;62.63
55990;BME280;41875;55.806;38.082;2023-03-03T02:21:58;97797.94;;;2.23;64.79
55990;BME280;41875;55.806;38.082;2023-03-03T02:24:29;97788.53;;;2.49;64.72
55990;BME280;41875;55.806;38.082;2023-03-03T02:27:01;97785.53;;;2.25;64.51
55990;BME280;41875;55.806;38.082;2023-03-03T02:29:29;97777.41;;;2.91;62.85
55990;BME280;41875;55.806;38.082;2023-03-03T02:31:58;97777.22;;;2.48;64.12
55990;BME280;41875;55.806;38.082;2023-03-03T02:34:26;97767.50;;;2.77;62.34
55990;BME280;41875;55.806;38.082;2023-03-03T02:36:54;97771.56;;;2.53;64.71
55990;BME280;41875;55.806;38.082;2023-03-03T02:39:23;97767.72;;;2.83;64.27
55990;BME280;41875;55.806;38.082;2023-03-03T02:41:52;97774.72;;;2.56;64.02
55990;BME280;41875;55.806;38.082;2023-03-03T02:44:32;97758.13;;;2.29;64.10
55990;BME280;41875;55.806;38.082;2023-03-03T02:47:00;97769.44;;;2.74;62.64
55990;BME280;41875;55.806;38.082;2023-03-03T02:49:31;97768.25;;;2.69;63.12
55990;BME280;41875;55.806;38.082;2023-03-03T02:52:03;97756.06;;;2.78;62.97
55990;BME280;41875;55.806;38.082;2023-03-03T02:54:33;97758.94;;;2.48;62.76
55990;BME280;41875;55.806;38.082;2023-03-03T02:57:03;97751.66;;;2.16;64.37
55990;BME280;41875;55.806;38.082;2023-03-03T02:59:33;97750.00;;;2.77;62.77
55990;BME280;41875;55.806;38.082;2023-03-03T03:02:08;97755.25;;;3.03;61.53
55990;BME280;41875;55.806;38.082;2023-03-03T03:04:36;97756.78;;;3.14;61.26
55990;BME280;41875;55.806;38.082;2023-03-03T03:07:05;97754.47;;;3.11;61.15
55990;BME280;41875;55.806;38.082;2023-03-03T03:09:35;97748.19;;;3.30;60.58
55990;BME280;41875;55.806;38.082;2023-03-03T03:12:04;97752.50;;;3.40;59.29
55990;BME280;41875;55.806;38.082;2023-03-03T03:14:35;97752.06;;;3.18;60.91
55990;BME280;41875;55.806;38.082;2023-03-03T03:17:05;97749.56;;;3.08;61.01
55990;BME280;41875;55.806;38.082;2023-03-03T03:19:33;97741.19;;;3.31;60.10
55990;BME280;41875;55.806;38.082;2023-03-03T03:22:01;97749.22;;;3.38;60.13
55990;BME280;41875;55.806;38.082;2023-03-03T03:24:33;97742.81;;;3.32;60.23
55990;BME280;41875;55.806;38.082;2023-03-03T03:27:05;97745.09;;;3.78;59.81
55990;BME280;41875;55.806;38.082;2023-03-03T03:29:35;97738.34;;;3.67;59.45
55990;BME280;41875;55.806;38.082;2023-03-03T03:32:04;97744.78;;;3.81;58.92
55990;BME280;41875;55.806;38.082;2023-03-03T03:34:33;97745.75;;;3.29;59.53
55990;BME280;41875;55.806;38.082;2023-03-03T03:37:02;97732.69;;;3.02;60.86
55990;BME280;41875;55.806;38.082;2023-03-03T03:39:32;97732.66;;;2.94;60.81
55990;BME280;41875;55.806;38.082;2023-03-03T03:42:00;97734.38;;;2.85;61.32
55990;BME280;41875;55.806;38.082;2023-03-03T03:44:28;97732.97;;;2.47;62.97
55990;BME280;41875;55.806;38.082;2023-03-03T03:46:58;97723.53;;;2.72;62.95
55990;BME280;41875;55.806;38.082;2023-03-03T03:49:26;97723.09;;;3.11;61.36
55990;BME280;41875;55.806;38.082;2023-03-03T03:51:56;97724.56;;;2.87;61.87
55990;BME280;41875;55.806;38.082;2023-03-03T03:54:27;97724.66;;;3.04;62.06
55990;BME280;41875;55.806;38.082;2023-03-03T03:56:56;97719.63;;;3.11;61.62
55990;BME280;41875;55.806;38.082;2023-03-03T03:59:24;97720.91;;;2.72;62.30
55990;BME280;41875;55.806;38.082;2023-03-03T04:01:53;97718.50;;;2.79;62.18
55990;BME280;41875;55.806;38.082;2023-03-03T04:04:24;97721.69;;;2.46;62.42
55990;BME280;41875;55.806;38.082;2023-03-03T04:06:52;97720.38;;;2.95;62.25
55990;BME280;41875;55.806;38.082;2023-03-03T04:09:21;97719.91;;;2.99;62.15
55990;BME280;41875;55.806;38.082;2023-03-03T04:11:49;97711.56;;;2.96;61.85
55990;BME280;41875;55.806;38.082;2023-03-03T04:14:17;97706.22;;;2.79;63.15
55990;BME280;41875;55.806;38.082;2023-03-03T04:16:45;97709.91;;;2.68;64.01
55990;BME280;41875;55.806;38.082;2023-03-03T04:19:13;97708.56;;;2.38;64.88
55990;BME280;41875;55.806;38.082;2023-03-03T04:21:44;97709.13;;;2.50;65.01
55990;BME280;41875;55.806;38.082;2023-03-03T04:24:15;97708.81;;;2.26;65.22
55990;BME280;41875;55.806;38.082;2023-03-03T04:26:49;97707.47;;;2.67;65.04
55990;BME280;41875;55.806;38.082;2023-03-03T04:29:17;97705.50;;;3.30;62.72
55990;BME280;41875;55.806;38.082;2023-03-03T04:31:45;97712.03;;;2.91;63.35
55990;BME280;41875;55.806;38.082;2023-03-03T04:34:14;97708.72;;;2.63;64.39
55990;BME280;41875;55.806;38.082;2023-03-03T04:36:44;97710.75;;;2.69;64.43
55990;BME280;41875;55.806;38.082;2023-03-03T04:39:13;97713.31;;;2.87;63.90
55990;BME280;41875;55.806;38.082;2023-03-03T04:41:41;97700.97;;;3.05;63.93
55990;BME280;41875;55.806;38.082;2023-03-03T04:44:10;97706.31;;;2.69;65.14
55990;BME280;41875;55.806;38.082;2023-03-03T04:46:38;97707.84;;;3.07;64.32
55990;BME280;41875;55.806;38.082;2023-03-03T04:49:06;97709.41;;;2.20;65.95
55990;BME280;41875;55.806;38.082;2023-03-03T04:51:39;97703.69;;;2.43;65.80
55990;BME280;41875;55.806;38.082;2023-03-03T04:54:09;97705.41;;;2.79;65.41
55990;BME280;41875;55.806;38.082;2023-03-03T04:56:37;97699.19;;;2.53;65.06
55990;BME280;41875;55.806;38.082;2023-03-03T04:59:06;97705.50;;;2.69;65.27
55990;BME280;41875;55.806;38.082;2023-03-03T05:01:35;97706.41;;;3.12;64.49
55990;BME280;41875;55.806;38.082;2023-03-03T05:04:04;97711.50;;;2.87;64.55
55990;BME280;41875;55.806;38.082;2023-03-03T05:06:32;97710.38;;;3.16;64.28
55990;BME280;41875;55.806;38.082;2023-03-03T05:09:00;97710.69;;;2.87;64.29
55990;BME280;41875;55.806;38.082;2023-03-03T05:11:31;97709.09;;;2.68;64.52
55990;BME280;41875;55.806;38.082;2023-03-03T05:13:59;97703.28;;;3.09;64.19
55990;BME280;41875;55.806;38.082;2023-03-03T05:16:29;97709.25;;;3.27;63.04
55990;BME280;41875;55.806;38.082;2023-03-03T05:18:57;97714.00;;;2.44;65.27
55990;BME280;41875;55.806;38.082;2023-03-03T05:21:25;97704.19;;;2.91;64.96
55990;BME280;41875;55.806;38.082;2023-03-03T05:23:53;97699.75;;;2.92;64.50
55990;BME280;41875;55.806;38.082;2023-03-03T05:26:22;97697.22;;;3.08;64.07
55990;BME280;41875;55.806;38.082;2023-03-03T05:28:52;97701.97;;;3.04;64.08
55990;BME280;41875;55.806;38.082;2023-03-03T05:31:20;97704.34;;;3.24;63.12
55990;BME280;41875;55.806;38.082;2023-03-03T05:33:49;97700.34;;;3.46;61.87
55990;BME280;41875;55.806;38.082;2023-03-03T05:36:17;97702.59;;;4.17;61.01
55990;BME280;41875;55.806;38.082;2023-03-03T05:38:45;97697.81;;;3.28;62.27
55990;BME280;41875;55.806;38.082;2023-03-03T05:41:14;97702.22;;;3.79;61.81
55990;BME280;41875;55.806;38.082;2023-03-03T05:43:42;97698.50;;;3.90;60.76
55990;BME280;41875;55.806;38.082;2023-03-03T05:46:11;97707.00;;;2.98;63.03
55990;BME280;41875;55.806;38.082;2023-03-03T05:48:39;97713.59;;;2.57;64.27
55990;BME280;41875;55.806;38.082;2023-03-03T05:51:08;97710.66;;;3.13;62.85
55990;BME280;41875;55.806;38.082;2023-03-03T05:53:36;97712.53;;;2.95;63.21
55990;BME280;41875;55.806;38.082;2023-03-03T05:56:04;97702.69;;;3.66;60.80
55990;BME280;41875;55.806;38.082;2023-03-03T05:58:32;97715.66;;;3.33;62.38
55990;BME280;41875;55.806;38.082;2023-03-03T06:01:00;97714.72;;;3.08;62.30
55990;BME280;41875;55.806;38.082;2023-03-03T06:03:30;97712.34;;;3.23;62.23
55990;BME280;41875;55.806;38.082;2023-03-03T06:05:59;97708.81;;;3.40;61.71
55990;BME280;41875;55.806;38.082;2023-03-03T06:08:27;97703.16;;;3.53;61.83
55990;BME280;41875;55.806;38.082;2023-03-03T06:10:58;97712.91;;;3.43;61.90
55990;BME280;41875;55.806;38.082;2023-03-03T06:13:26;97709.50;;;4.60;59.68
55990;BME280;41875;55.806;38.082;2023-03-03T06:15:54;97713.00;;;3.68;61.32
55990;BME280;41875;55.806;38.082;2023-03-03T06:18:22;97718.47;;;3.40;61.66
55990;BME280;41875;55.806;38.082;2023-03-03T06:20:52;97721.59;;;3.51;61.89
55990;BME280;41875;55.806;38.082;2023-03-03T06:23:21;97709.59;;;3.75;62.25
55990;BME280;41875;55.806;38.082;2023-03-03T06:25:49;97716.06;;;3.46;61.62
55990;BME280;41875;55.806;38.082;2023-03-03T06:28:18;97716.66;;;3.83;61.75
55990;BME280;41875;55.806;38.082;2023-03-03T06:30:46;97718.28;;;3.84;59.65
55990;BME280;41875;55.806;38.082;2023-03-03T06:33:14;97722.81;;;2.96;62.71
55990;BME280;41875;55.806;38.082;2023-03-03T06:35:43;97720.94;;;2.80;63.92
55990;BME280;41875;55.806;38.082;2023-03-03T06:38:12;97730.22;;;2.74;63.07
55990;BME280;41875;55.806;38.082;2023-03-03T06:40:41;97720.56;;;3.28;62.41
55990;BME280;41875;55.806;38.082;2023-03-03T06:43:09;97719.03;;;3.17;61.50
55990;BME280;41875;55.806;38.082;2023-03-03T06:45:37;97715.41;;;3.10;62.07
55990;BME280;41875;55.806;38.082;2023-03-03T06:48:06;97714.53;;;3.35;60.36
55990;BME280;41875;55.806;38.082;2023-03-03T06:50:34;97721.91;;;2.79;61.58
55990;BME280;41875;55.806;38.082;2023-03-03T06:53:05;97717.47;;;2.98;61.02
55990;BME280;41875;55.806;38.082;2023-03-03T06:55:36;97702.41;;;3.34;60.39
55990;BME280;41875;55.806;38.082;2023-03-03T06:58:07;97710.13;;;4.20;58.71
55990;BME280;41875;55.806;38.082;2023-03-03T07:00:38;97708.75;;;3.75;59.16
55990;BME280;41875;55.806;38.082;2023-03-03T07:03:11;97704.97;;;3.69;58.60
55990;BME280;41875;55.806;38.082;2023-03-03T07:05:40;97708.38;;;3.53;59.36
55990;BME280;41875;55.806;38.082;2023-03-03T07:08:12;97712.28;;;2.53;61.25
55990;BME280;41875;55.806;38.082;2023-03-03T07:10:42;97713.66;;;3.70;59.41
55990;BME280;41875;55.806;38.082;2023-03-03T07:13:15;97711.00;;;3.53;58.58
55990;BME280;41875;55.806;38.082;2023-03-03T07:15:44;97714.22;;;3.90;59.02
55990;BME280;41875;55.806;38.082;2023-03-03T07:21:11;97710.56;;;3.74;58.65
55990;BME280;41875;55.806;38.082;2023-03-03T07:23:41;97720.34;;;2.86;60.40
55990;BME280;41875;55.806;38.082;2023-03-03T07:26:13;97712.75;;;1.94;62.36
55990;BME280;41875;55.806;38.082;2023-03-03T07:28:42;97723.28;;;2.39;61.70
55990;BME280;41875;55.806;38.082;2023-03-03T07:31:23;97722.59;;;2.81;60.14
55990;BME280;41875;55.806;38.082;2023-03-03T07:33:53;97705.81;;;2.66;60.79
55990;BME280;41875;55.806;38.082;2023-03-03T07:36:24;97722.16;;;2.23;61.84
55990;BME280;41875;55.806;38.082;2023-03-03T07:38:53;97715.78;;;2.44;62.14
55990;BME280;41875;55.806;38.082;2023-03-03T07:41:23;97724.34;;;1.64;62.97
55990;BME280;41875;55.806;38.082;2023-03-03T07:43:52;97720.94;;;1.35;64.69
55990;BME280;41875;55.806;38.082;2023-03-03T07:46:28;97718.72;;;2.23;62.22
55990;BME280;41875;55.806;38.082;2023-03-03T07:48:57;97727.31;;;2.33;62.36
55990;BME280;41875;55.806;38.082;2023-03-03T07:51:27;97721.56;;;1.93;62.29
55990;BME280;41875;55.806;38.082;2023-03-03T07:54:10;97731.44;;;1.72;63.31
55990;BME280;41875;55.806;38.082;2023-03-03T07:56:43;97737.22;;;2.48;61.00
55990;BME280;41875;55.806;38.082;2023-03-03T07:59:15;97731.00;;;2.67;60.41
55990;BME280;41875;55.806;38.082;2023-03-03T08:01:47;97735.84;;;3.14;59.55
55990;BME280;41875;55.806;38.082;2023-03-03T08:04:19;97738.97;;;2.92;59.16
55990;BME280;41875;55.806;38.082;2023-03-03T08:06:49;97738.38;;;2.71;59.53
55990;BME280;41875;55.806;38.082;2023-03-03T08:09:26;97739.97;;;2.90;58.55
55990;BME280;41875;55.806;38.082;2023-03-03T08:11:59;97739.59;;;3.12;58.64
55990;BME280;41875;55.806;38.082;2023-03-03T08:14:29;97744.13;;;3.01;58.42
55990;BME280;41875;55.806;38.082;2023-03-03T08:16:57;97734.50;;;2.57;59.44
55990;BME280;41875;55.806;38.082;2023-03-03T08:19:27;97741.72;;;2.19;60.48
55990;BME280;41875;55.806;38.082;2023-03-03T08:21:57;97733.13;;;1.63;61.49
55990;BME280;41875;55.806;38.082;2023-03-03T08:24:27;97747.53;;;2.49;60.10
55990;BME280;41875;55.806;38.082;2023-03-03T08:26:55;97745.63;;;3.39;57.10
55990;BME280;41875;55.806;38.082;2023-03-03T08:29:25;97749.41;;;3.95;56.36
55990;BME280;41875;55.806;38.082;2023-03-03T08:31:53;97751.44;;;3.24;57.21
55990;BME280;41875;55.806;38.082;2023-03-03T08:34:22;97744.47;;;3.07;58.13
55990;BME280;41875;55.806;38.082;2023-03-03T08:36:50;97745.06;;;2.74;58.83
55990;BME280;41875;55.806;38.082;2023-03-03T08:39:18;97744.47;;;3.84;55.82
55990;BME280;41875;55.806;38.082;2023-03-03T08:41:47;97745.56;;;3.30;56.36
55990;BME280;41875;55.806;38.082;2023-03-03T08:44:19;97753.75;;;2.74;58.71
55990;BME280;41875;55.806;38.082;2023-03-03T08:46:48;97753.81;;;3.09;57.41
55990;BME280;41875;55.806;38.082;2023-03-03T08:49:17;97750.91;;;3.20;57.40
55990;BME280;41875;55.806;38.082;2023-03-03T08:51:45;97746.75;;;3.36;57.30
55990;BME280;41875;55.806;38.082;2023-03-03T08:54:14;97743.19;;;4.05;55.71
55990;BME280;41875;55.806;38.082;2023-03-03T08:56:42;97747.38;;;3.73;55.23
55990;BME280;41875;55.806;38.082;2023-03-03T08:59:10;97745.44;;;3.32;56.57
55990;BME280;41875;55.806;38.082;2023-03-03T09:01:39;97758.22;;;3.09;58.26
55990;BME280;41875;55.806;38.082;2023-03-03T09:04:10;97756.16;;;2.50;58.70
55990;BME280;41875;55.806;38.082;2023-03-03T09:06:39;97767.75;;;2.47;59.71
55990;BME280;41875;55.806;38.082;2023-03-03T09:09:07;97766.34;;;2.35;60.17
55990;BME280;41875;55.806;38.082;2023-03-03T09:11:35;97762.28;;;2.58;59.30
55990;BME280;41875;55.806;38.082;2023-03-03T09:14:06;97761.28;;;2.33;59.75
55990;BME280;41875;55.806;38.082;2023-03-03T09:16:36;97747.84;;;1.64;61.24
55990;BME280;41875;55.806;38.082;2023-03-03T09:19:17;97767.66;;;1.57;61.87
55990;BME280;41875;55.806;38.082;2023-03-03T09:21:47;97762.22;;;2.14;60.81
55990;BME280;41875;55.806;38.082;2023-03-03T09:24:17;97766.63;;;2.50;60.79
55990;BME280;41875;55.806;38.082;2023-03-03T09:26:50;97770.47;;;3.08;58.29
55990;BME280;41875;55.806;38.082;2023-03-03T09:29:24;97768.91;;;2.89;58.29
55990;BME280;41875;55.806;38.082;2023-03-03T09:31:53;97765.78;;;3.46;57.39
55990;BME280;41875;55.806;38.082;2023-03-03T09:34:24;97774.38;;;3.04;58.28
55990;BME280;41875;55.806;38.082;2023-03-03T09:36:54;97769.16;;;3.81;56.74
55990;BME280;41875;55.806;38.082;2023-03-03T09:39:26;97764.91;;;3.80;56.67
55990;BME280;41875;55.806;38.082;2023-03-03T09:42:14;97774.53;;;3.63;56.95
55990;BME280;41875;55.806;38.082;2023-03-03T09:47:43;97768.63;;;3.61;56.02
55990;BME280;41875;55.806;38.082;2023-03-03T09:50:21;97768.81;;;4.44;55.45
55990;BME280;41875;55.806;38.082;2023-03-03T09:52:55;97771.75;;;4.24;54.10
55990;BME280;41875;55.806;38.082;2023-03-03T09:55:33;97772.41;;;4.35;55.35
55990;BME280;41875;55.806;38.082;2023-03-03T09:58:12;97771.28;;;4.37;53.79
55990;BME280;41875;55.806;38.082;2023-03-03T10:00:46;97775.34;;;4.48;53.70
55990;BME280;41875;55.806;38.082;2023-03-03T10:06:19;97762.19;;;6.34;48.91
55990;BME280;41875;55.806;38.082;2023-03-03T10:08:52;97761.13;;;6.20;49.74
55990;BME280;41875;55.806;38.082;2023-03-03T10:11:25;97758.50;;;6.20;48.13
55990;BME280;41875;55.806;38.082;2023-03-03T10:13:59;97759.53;;;5.23;50.59
55990;BME280;41875;55.806;38.082;2023-03-03T10:16:35;97756.34;;;4.79;52.14
55990;BME280;41875;55.806;38.082;2023-03-03T10:19:09;97765.34;;;5.10;51.62
55990;BME280;41875;55.806;38.082;2023-03-03T10:21:45;97756.06;;;5.39;52.69
55990;BME280;41875;55.806;38.082;2023-03-03T10:24:21;97750.94;;;4.48;53.75
55990;BME280;41875;55.806;38.082;2023-03-03T10:27:04;97754.13;;;3.84;55.26
55990;BME280;41875;55.806;38.082;2023-03-03T10:29:42;97761.44;;;4.64;56.08
55990;BME280;41875;55.806;38.082;2023-03-03T10:32:25;97753.66;;;5.21;53.15
55990;BME280;41875;55.806;38.082;2023-03-03T10:35:01;97752.09;;;4.70;53.52
55990;BME280;41875;55.806;38.082;2023-03-03T10:37:34;97750.56;;;5.09;53.06
55990;BME280;41875;55.806;38.082;2023-03-03T10:40:12;97747.50;;;5.45;52.15
55990;BME280;41875;55.806;38.082;2023-03-03T10:43:00;97751.28;;;4.78;52.81
55990;BME280;41875;55.806;38.082;2023-03-03T10:45:44;97755.28;;;5.30;52.58
55990;BME280;41875;55.806;38.082;2023-03-03T10:48:16;97756.19;;;4.39;54.33
55990;BME280;41875;55.806;38.082;2023-03-03T10:50:50;97751.09;;;4.63;54.00
55990;BME280;41875;55.806;38.082;2023-03-03T10:53:24;97755.69;;;4.77;53.62
55990;BME280;41875;55.806;38.082;2023-03-03T10:55:59;97763.53;;;4.19;54.76
55990;BME280;41875;55.806;38.082;2023-03-03T10:58:34;97765.72;;;3.03;59.07
55990;BME280;41875;55.806;38.082;2023-03-03T11:01:10;97770.34;;;3.10;59.41
55990;BME280;41875;55.806;38.082;2023-03-03T11:03:46;97761.19;;;3.83;57.63
55990;BME280;41875;55.806;38.082;2023-03-03T11:06:21;97771.25;;;4.21;55.52
55990;BME280;41875;55.806;38.082;2023-03-03T11:08:53;97773.28;;;3.84;55.95
55990;BME280;41875;55.806;38.082;2023-03-03T11:11:26;97767.00;;;3.34;57.72
55990;BME280;41875;55.806;38.082;2023-03-03T11:14:00;97782.28;;;3.39;57.48
55990;BME280;41875;55.806;38.082;2023-03-03T11:16:34;97778.94;;;4.14;54.84
55990;BME280;41875;55.806;38.082;2023-03-03T11:19:06;97776.34;;;4.31;55.08
55990;BME280;41875;55.806;38.082;2023-03-03T11:21:40;97768.81;;;4.44;54.46
55990;BME280;41875;55.806;38.082;2023-03-03T11:24:16;97766.47;;;5.15;51.77
55990;BME280;41875;55.806;38.082;2023-03-03T11:26:57;97774.88;;;4.69;52.54
55990;BME280;41875;55.806;38.082;2023-03-03T11:29:43;97772.50;;;4.00;54.56
55990;BME280;41875;55.806;38.082;2023-03-03T11:32:18;97780.44;;;4.33;53.70
55990;BME280;41875;55.806;38.082;2023-03-03T11:34:59;97775.69;;;4.53;52.93
55990;BME280;41875;55.806;38.082;2023-03-03T11:37:34;97771.25;;;4.29;52.64
55990;BME280;41875;55.806;38.082;2023-03-03T11:40:08;97771.25;;;4.54;52.66
55990;BME280;41875;55.806;38.082;2023-03-03T11:42:43;97774.53;;;5.14;50.80
55990;BME280;41875;55.806;38.082;2023-03-03T11:45:16;97776.34;;;4.88;52.16
55990;BME280;41875;55.806;38.082;2023-03-03T11:47:46;97772.44;;;5.57;51.14
55990;BME280;41875;55.806;38.082;2023-03-03T11:50:20;97771.66;;;6.20;48.43
55990;BME280;41875;55.806;38.082;2023-03-03T11:52:50;97774.72;;;5.52;51.30
55990;BME280;41875;55.806;38.082;2023-03-03T11:55:25;97776.97;;;6.12;49.72
55990;BME280;41875;55.806;38.082;2023-03-03T11:58:03;97775.59;;;5.84;49.01
55990;BME280;41875;55.806;38.082;2023-03-03T12:00:36;97761.31;;;6.18;48.44
55990;BME280;41875;55.806;38.082;2023-03-03T12:03:13;97762.91;;;5.48;49.95
55990;BME280;41875;55.806;38.082;2023-03-03T12:05:49;97775.03;;;6.29;48.46
55990;BME280;41875;55.806;38.082;2023-03-03T12:08:26;97781.63;;;6.71;47.17
55990;BME280;41875;55.806;38.082;2023-03-03T12:11:00;97772.63;;;5.87;48.43
55990;BME280;41875;55.806;38.082;2023-03-03T12:13:34;97768.38;;;5.78;49.36
55990;BME280;41875;55.806;38.082;2023-03-03T12:16:09;97773.06;;;4.95;49.84
55990;BME280;41875;55.806;38.082;2023-03-03T12:18:49;97771.28;;;4.79;50.64
55990;BME280;41875;55.806;38.082;2023-03-03T12:21:25;97772.03;;;5.21;50.48
55990;BME280;41875;55.806;38.082;2023-03-03T12:23:59;97779.78;;;4.56;51.75
55990;BME280;41875;55.806;38.082;2023-03-03T12:26:35;97780.84;;;4.04;53.91
55990;BME280;41875;55.806;38.082;2023-03-03T12:29:11;97780.13;;;4.36;52.63
55990;BME280;41875;55.806;38.082;2023-03-03T12:31:47;97768.00;;;4.68;52.51
55990;BME280;41875;55.806;38.082;2023-03-03T12:34:21;97777.97;;;4.40;52.31
55990;BME280;41875;55.806;38.082;2023-03-03T12:36:58;97772.25;;;4.78;51.42
55990;BME280;41875;55.806;38.082;2023-03-03T12:39:37;97775.69;;;4.37;53.11
55990;BME280;41875;55.806;38.082;2023-03-03T12:42:15;97778.16;;;4.47;52.66
55990;BME280;41875;55.806;38.082;2023-03-03T12:44:46;97780.31;;;4.76;52.37
55990;BME280;41875;55.806;38.082;2023-03-03T12:47:15;97778.16;;;4.63;52.31
55990;BME280;41875;55.806;38.082;2023-03-03T12:49:52;97778.78;;;4.40;53.12
55990;BME280;41875;55.806;38.082;2023-03-03T12:52:35;97783.84;;;5.08;52.21
55990;BME280;41875;55.806;38.082;2023-03-03T12:55:09;97774.03;;;4.94;52.57
55990;BME280;41875;55.806;38.082;2023-03-03T12:57:42;97793.50;;;4.25;54.57
55990;BME280;41875;55.806;38.082;2023-03-03T13:00:17;97788.81;;;3.77;56.72
55990;BME280;41875;55.806;38.082;2023-03-03T13:02:52;97792.41;;;4.44;55.28
55990;BME280;41875;55.806;38.082;2023-03-03T13:05:26;97792.41;;;4.85;53.72
55990;BME280;41875;55.806;38.082;2023-03-03T13:07:59;97784.88;;;4.91;53.47
55990;BME280;41875;55.806;38.082;2023-03-03T13:10:38;97791.63;;;4.68;53.27
55990;BME280;41875;55.806;38.082;2023-03-03T13:13:10;97784.88;;;4.49;53.36
55990;BME280;41875;55.806;38.082;2023-03-03T13:15:43;97791.25;;;5.04;52.63
55990;BME280;41875;55.806;38.082;2023-03-03T13:18:28;97787.91;;;3.60;55.21
55990;BME280;41875;55.806;38.082;2023-03-03T13:21:00;97794.84;;;3.70;55.89
55990;BME280;41875;55.806;38.082;2023-03-03T13:23:35;97792.25;;;4.54;54.40
55990;BME280;41875;55.806;38.082;2023-03-03T13:26:10;97790.47;;;4.71;54.03
55990;BME280;41875;55.806;38.082;2023-03-03T13:28:48;97789.84;;;3.93;55.47
55990;BME280;41875;55.806;38.082;2023-03-03T13:31:19;97799.59;;;4.34;55.13